sensor_id;sensor_type;location;lat;lon;timestamp;temperature;humidity
44277;DHT22;29973;43.742;1.236;2023-06-26T00:01:31;20.40;99.90
44277;DHT22;29973;43.742;1.236;2023-06-26T00:03:58;20.50;99.90
44277;DHT22;29973;43.742;1.236;2023-06-26T00:06:27;20.50;99.90
44277;DHT22;29973;43.742;1.236;2023-06-26T00:08:54;20.50;99.90
44277;DHT22;29973;43.742;1.236;2023-06-26T00:11:20;20.50;99.90
44277;DHT22;29973;43.742;1.236;2023-06-26T00:13:46;20.60;99.90
44277;DHT22;29973;43.742;1.236;2023-06-26T00:16:12;20.50;99.90
44277;DHT22;29973;43.742;1.236;2023-06-26T00:18:38;20.30;99.90
44277;DHT22;29973;43.742;1.236;2023-06-26T00:21:04;20.30;99.90
44277;DHT22;29973;43.742;1.236;2023-06-26T00:23:29;20.30;99.90
44277;DHT22;29973;43.742;1.236;2023-06-26T00:25:57;20.30;99.90
44277;DHT22;29973;43.742;1.236;2023-06-26T00:28:23;20.20;99.90
44277;DHT22;29973;43.742;1.236;2023-06-26T00:30:49;20.40;99.90
44277;DHT22;29973;43.742;1.236;2023-06-26T00:33:14;20.40;99.90
44277;DHT22;29973;43.742;1.236;2023-06-26T00:35:41;20.40;99.90
44277;DHT22;29973;43.742;1.236;2023-06-26T00:38:06;20.50;99.90
44277;DHT22;29973;43.742;1.236;2023-06-26T00:40:32;20.30;99.90
44277;DHT22;29973;43.742;1.236;2023-06-26T00:42:58;20.20;99.90
44277;DHT22;29973;43.742;1.236;2023-06-26T00:45:23;20.20;99.90
44277;DHT22;29973;43.742;1.236;2023-06-26T00:47:49;20.20;99.90
44277;DHT22;29973;43.742;1.236;2023-06-26T00:50:15;20.20;99.90
44277;DHT22;29973;43.742;1.236;2023-06-26T00:52:43;20.20;99.90
44277;DHT22;29973;43.742;1.236;2023-06-26T00:55:09;20.20;99.90
44277;DHT22;29973;43.742;1.236;2023-06-26T00:57:35;20.20;99.90
44277;DHT22;29973;43.742;1.236;2023-06-26T01:00:01;20.30;99.90
44277;DHT22;29973;43.742;1.236;2023-06-26T01:02:29;20.30;99.90
44277;DHT22;29973;43.742;1.236;2023-06-26T01:05:00;20.10;99.90
44277;DHT22;29973;43.742;1.236;2023-06-26T01:07:26;20.10;99.90
44277;DHT22;29973;43.742;1.236;2023-06-26T01:09:52;20.20;99.90
44277;DHT22;29973;43.742;1.236;2023-06-26T01:12:19;20.20;99.90
44277;DHT22;29973;43.742;1.236;2023-06-26T01:14:45;20.30;99.90
44277;DHT22;29973;43.742;1.236;2023-06-26T01:17:11;20.30;99.90
44277;DHT22;29973;43.742;1.236;2023-06-26T01:19:39;20.20;99.90
44277;DHT22;29973;43.742;1.236;2023-06-26T01:22:56;20.30;99.90
44277;DHT22;29973;43.742;1.236;2023-06-26T01:27:46;20.30;99.90
44277;DHT22;29973;43.742;1.236;2023-06-26T01:30:14;20.30;99.90
44277;DHT22;29973;43.742;1.236;2023-06-26T01:32:42;20.30;99.90
44277;DHT22;29973;43.742;1.236;2023-06-26T01:35:08;20.10;99.90
44277;DHT22;29973;43.742;1.236;2023-06-26T01:37:35;20.20;99.90
44277;DHT22;29973;43.742;1.236;2023-06-26T01:40:00;20.20;99.90
44277;DHT22;29973;43.742;1.236;2023-06-26T01:42:26;20.20;99.90
44277;DHT22;29973;43.742;1.236;2023-06-26T01:44:55;20.20;99.90
44277;DHT22;29973;43.742;1.236;2023-06-26T01:47:22;20.20;99.90
44277;DHT22;29973;43.742;1.236;2023-06-26T01:52:25;20.10;99.90
44277;DHT22;29973;43.742;1.236;2023-06-26T01:57:42;20.20;99.90
44277;DHT22;29973;43.742;1.236;2023-06-26T02:00:11;20.20;99.90
44277;DHT22;29973;43.742;1.236;2023-06-26T02:02:38;20.20;99.90
44277;DHT22;29973;43.742;1.236;2023-06-26T02:05:06;20.10;99.90
44277;DHT22;29973;43.742;1.236;2023-06-26T02:07:31;20.10;99.90
44277;DHT22;29973;43.742;1.236;2023-06-26T02:09:57;20.10;99.90
44277;DHT22;29973;43.742;1.236;2023-06-26T02:12:23;20.10;99.90
44277;DHT22;29973;43.742;1.236;2023-06-26T02:14:50;20.10;99.90
44277;DHT22;29973;43.742;1.236;2023-06-26T02:17:16;20.10;99.90
44277;DHT22;29973;43.742;1.236;2023-06-26T02:19:42;20.00;99.90
44277;DHT22;29973;43.742;1.236;2023-06-26T02:22:15;20.00;99.90
44277;DHT22;29973;43.742;1.236;2023-06-26T02:24:43;20.10;99.90
44277;DHT22;29973;43.742;1.236;2023-06-26T02:27:09;20.10;99.90
44277;DHT22;29973;43.742;1.236;2023-06-26T02:29:35;20.10;99.90
44277;DHT22;29973;43.742;1.236;2023-06-26T02:32:01;20.10;99.90
44277;DHT22;29973;43.742;1.236;2023-06-26T02:34:26;20.10;99.90
44277;DHT22;29973;43.742;1.236;2023-06-26T02:36:53;20.10;99.90
44277;DHT22;29973;43.742;1.236;2023-06-26T02:39:22;20.20;99.90
44277;DHT22;29973;43.742;1.236;2023-06-26T02:41:47;20.10;99.90
44277;DHT22;29973;43.742;1.236;2023-06-26T02:44:13;20.10;99.90
44277;DHT22;29973;43.742;1.236;2023-06-26T02:46:40;20.10;99.90
44277;DHT22;29973;43.742;1.236;2023-06-26T02:49:06;20.10;99.90
44277;DHT22;29973;43.742;1.236;2023-06-26T02:51:33;20.20;99.90
44277;DHT22;29973;43.742;1.236;2023-06-26T02:53:58;20.10;99.90
44277;DHT22;29973;43.742;1.236;2023-06-26T02:56:24;20.10;99.90
44277;DHT22;29973;43.742;1.236;2023-06-26T02:58:54;20.20;99.90
44277;DHT22;29973;43.742;1.236;2023-06-26T03:01:20;20.30;99.90
44277;DHT22;29973;43.742;1.236;2023-06-26T03:03:46;20.20;99.90
44277;DHT22;29973;43.742;1.236;2023-06-26T03:06:13;20.20;99.90
44277;DHT22;29973;43.742;1.236;2023-06-26T03:08:39;20.20;99.90
44277;DHT22;29973;43.742;1.236;2023-06-26T03:11:06;20.10;99.90
44277;DHT22;29973;43.742;1.236;2023-06-26T03:13:33;20.10;99.90
44277;DHT22;29973;43.742;1.236;2023-06-26T03:15:59;20.20;99.90
44277;DHT22;29973;43.742;1.236;2023-06-26T03:18:24;20.10;99.90
44277;DHT22;29973;43.742;1.236;2023-06-26T03:20:50;20.10;99.90
44277;DHT22;29973;43.742;1.236;2023-06-26T03:23:16;20.10;99.90
44277;DHT22;29973;43.742;1.236;2023-06-26T03:25:42;20.10;99.90
44277;DHT22;29973;43.742;1.236;2023-06-26T03:28:07;20.10;99.90
44277;DHT22;29973;43.742;1.236;2023-06-26T03:30:33;20.10;99.90
44277;DHT22;29973;43.742;1.236;2023-06-26T03:32:59;20.10;99.90
44277;DHT22;29973;43.742;1.236;2023-06-26T03:35:24;20.00;99.90
44277;DHT22;29973;43.742;1.236;2023-06-26T03:37:50;20.10;99.90
44277;DHT22;29973;43.742;1.236;2023-06-26T03:40:16;20.10;99.90
44277;DHT22;29973;43.742;1.236;2023-06-26T03:42:42;20.10;99.90
44277;DHT22;29973;43.742;1.236;2023-06-26T03:45:08;20.10;99.90
44277;DHT22;29973;43.742;1.236;2023-06-26T03:47:34;20.10;99.90
44277;DHT22;29973;43.742;1.236;2023-06-26T03:49:59;20.10;99.90
44277;DHT22;29973;43.742;1.236;2023-06-26T03:52:25;20.00;99.90
44277;DHT22;29973;43.742;1.236;2023-06-26T03:54:51;20.00;99.90
44277;DHT22;29973;43.742;1.236;2023-06-26T03:57:16;20.00;99.90
44277;DHT22;29973;43.742;1.236;2023-06-26T03:59:50;20.00;99.90
44277;DHT22;29973;43.742;1.236;2023-06-26T04:02:16;19.80;99.90
44277;DHT22;29973;43.742;1.236;2023-06-26T04:04:41;19.80;99.90
44277;DHT22;29973;43.742;1.236;2023-06-26T04:07:07;19.80;99.90
44277;DHT22;29973;43.742;1.236;2023-06-26T04:09:33;19.70;99.90
44277;DHT22;29973;43.742;1.236;2023-06-26T04:11:58;19.70;99.90
44277;DHT22;29973;43.742;1.236;2023-06-26T04:14:24;19.70;99.90
44277;DHT22;29973;43.742;1.236;2023-06-26T04:16:50;19.70;99.90
44277;DHT22;29973;43.742;1.236;2023-06-26T04:19:16;19.60;99.90
44277;DHT22;29973;43.742;1.236;2023-06-26T04:21:41;19.60;99.90
44277;DHT22;29973;43.742;1.236;2023-06-26T04:24:07;19.60;99.90
44277;DHT22;29973;43.742;1.236;2023-06-26T04:26:33;19.50;99.90
44277;DHT22;29973;43.742;1.236;2023-06-26T04:28:59;19.50;99.90
44277;DHT22;29973;43.742;1.236;2023-06-26T04:31:25;19.40;99.90
44277;DHT22;29973;43.742;1.236;2023-06-26T04:33:51;19.30;99.90
44277;DHT22;29973;43.742;1.236;2023-06-26T04:36:20;19.30;99.90
44277;DHT22;29973;43.742;1.236;2023-06-26T04:38:46;19.10;99.90
44277;DHT22;29973;43.742;1.236;2023-06-26T04:41:13;19.00;99.90
44277;DHT22;29973;43.742;1.236;2023-06-26T04:43:39;19.10;99.90
44277;DHT22;29973;43.742;1.236;2023-06-26T04:46:05;19.10;99.90
44277;DHT22;29973;43.742;1.236;2023-06-26T04:48:31;19.00;99.90
44277;DHT22;29973;43.742;1.236;2023-06-26T04:50:57;19.00;99.90
44277;DHT22;29973;43.742;1.236;2023-06-26T04:53:24;19.10;99.90
44277;DHT22;29973;43.742;1.236;2023-06-26T04:55:51;19.20;99.90
44277;DHT22;29973;43.742;1.236;2023-06-26T04:58:17;19.10;99.90
44277;DHT22;29973;43.742;1.236;2023-06-26T05:00:43;19.10;99.90
44277;DHT22;29973;43.742;1.236;2023-06-26T05:03:13;19.10;99.90
44277;DHT22;29973;43.742;1.236;2023-06-26T05:05:39;19.10;99.90
44277;DHT22;29973;43.742;1.236;2023-06-26T05:08:34;19.10;99.90
44277;DHT22;29973;43.742;1.236;2023-06-26T05:10:59;19.20;99.90
44277;DHT22;29973;43.742;1.236;2023-06-26T05:13:25;19.40;99.90
44277;DHT22;29973;43.742;1.236;2023-06-26T05:15:52;19.30;99.90
44277;DHT22;29973;43.742;1.236;2023-06-26T05:18:18;19.40;99.90
44277;DHT22;29973;43.742;1.236;2023-06-26T05:20:44;19.50;99.90
44277;DHT22;29973;43.742;1.236;2023-06-26T05:23:13;19.60;99.90
44277;DHT22;29973;43.742;1.236;2023-06-26T05:25:39;19.80;99.90
44277;DHT22;29973;43.742;1.236;2023-06-26T05:28:05;19.90;99.90
44277;DHT22;29973;43.742;1.236;2023-06-26T05:30:31;19.90;99.90
44277;DHT22;29973;43.742;1.236;2023-06-26T05:33:00;20.00;99.90
44277;DHT22;29973;43.742;1.236;2023-06-26T05:35:29;19.70;99.90
44277;DHT22;29973;43.742;1.236;2023-06-26T05:37:56;20.00;99.90
44277;DHT22;29973;43.742;1.236;2023-06-26T05:40:22;20.00;99.90
44277;DHT22;29973;43.742;1.236;2023-06-26T05:42:49;20.20;99.90
44277;DHT22;29973;43.742;1.236;2023-06-26T05:45:15;20.30;99.90
44277;DHT22;29973;43.742;1.236;2023-06-26T05:47:41;20.00;99.90
44277;DHT22;29973;43.742;1.236;2023-06-26T05:50:09;19.80;99.90
44277;DHT22;29973;43.742;1.236;2023-06-26T05:52:35;19.90;99.90
44277;DHT22;29973;43.742;1.236;2023-06-26T05:55:02;19.90;99.90
44277;DHT22;29973;43.742;1.236;2023-06-26T05:57:29;20.00;99.90
44277;DHT22;29973;43.742;1.236;2023-06-26T05:59:56;20.10;99.90
44277;DHT22;29973;43.742;1.236;2023-06-26T06:02:22;20.00;99.90
44277;DHT22;29973;43.742;1.236;2023-06-26T06:04:48;20.20;99.90
44277;DHT22;29973;43.742;1.236;2023-06-26T06:07:14;20.00;99.90
44277;DHT22;29973;43.742;1.236;2023-06-26T06:09:40;20.20;99.90
44277;DHT22;29973;43.742;1.236;2023-06-26T06:12:06;20.40;99.90
44277;DHT22;29973;43.742;1.236;2023-06-26T06:14:33;20.60;99.90
44277;DHT22;29973;43.742;1.236;2023-06-26T06:16:59;20.60;99.90
44277;DHT22;29973;43.742;1.236;2023-06-26T06:19:24;20.50;99.90
44277;DHT22;29973;43.742;1.236;2023-06-26T06:21:50;20.20;99.90
44277;DHT22;29973;43.742;1.236;2023-06-26T06:24:16;20.10;99.90
44277;DHT22;29973;43.742;1.236;2023-06-26T06:26:42;20.50;99.90
44277;DHT22;29973;43.742;1.236;2023-06-26T06:29:08;20.50;99.90
44277;DHT22;29973;43.742;1.236;2023-06-26T06:31:33;20.50;99.90
44277;DHT22;29973;43.742;1.236;2023-06-26T06:33:59;20.50;99.90
44277;DHT22;29973;43.742;1.236;2023-06-26T06:36:25;20.70;99.90
44277;DHT22;29973;43.742;1.236;2023-06-26T06:38:50;20.90;99.90
44277;DHT22;29973;43.742;1.236;2023-06-26T06:41:16;21.00;99.90
44277;DHT22;29973;43.742;1.236;2023-06-26T06:43:42;20.90;99.90
44277;DHT22;29973;43.742;1.236;2023-06-26T06:46:08;21.00;99.90
44277;DHT22;29973;43.742;1.236;2023-06-26T06:48:34;20.90;99.90
44277;DHT22;29973;43.742;1.236;2023-06-26T06:51:01;21.20;99.90
44277;DHT22;29973;43.742;1.236;2023-06-26T06:53:27;20.90;99.90
44277;DHT22;29973;43.742;1.236;2023-06-26T06:55:53;21.20;99.90
44277;DHT22;29973;43.742;1.236;2023-06-26T06:58:19;21.20;99.90
44277;DHT22;29973;43.742;1.236;2023-06-26T07:00:45;21.20;99.90
44277;DHT22;29973;43.742;1.236;2023-06-26T07:03:15;21.30;99.90
44277;DHT22;29973;43.742;1.236;2023-06-26T07:05:50;21.50;99.90
44277;DHT22;29973;43.742;1.236;2023-06-26T07:08:20;21.90;99.90
44277;DHT22;29973;43.742;1.236;2023-06-26T07:10:48;21.90;99.90
44277;DHT22;29973;43.742;1.236;2023-06-26T07:13:13;21.90;99.90
44277;DHT22;29973;43.742;1.236;2023-06-26T07:15:39;22.40;99.90
44277;DHT22;29973;43.742;1.236;2023-06-26T07:18:05;22.40;99.90
44277;DHT22;29973;43.742;1.236;2023-06-26T07:20:31;22.70;99.90
44277;DHT22;29973;43.742;1.236;2023-06-26T07:22:56;21.90;99.90
44277;DHT22;29973;43.742;1.236;2023-06-26T07:25:22;22.20;99.90
44277;DHT22;29973;43.742;1.236;2023-06-26T07:27:48;22.40;99.90
44277;DHT22;29973;43.742;1.236;2023-06-26T07:30:13;21.90;99.90
44277;DHT22;29973;43.742;1.236;2023-06-26T07:32:39;22.10;99.90
44277;DHT22;29973;43.742;1.236;2023-06-26T07:35:09;22.80;99.90
44277;DHT22;29973;43.742;1.236;2023-06-26T07:37:34;23.00;99.90
44277;DHT22;29973;43.742;1.236;2023-06-26T07:40:00;22.80;99.90
44277;DHT22;29973;43.742;1.236;2023-06-26T07:42:26;22.80;99.90
44277;DHT22;29973;43.742;1.236;2023-06-26T07:44:52;22.80;99.90
44277;DHT22;29973;43.742;1.236;2023-06-26T07:47:17;23.20;99.90
44277;DHT22;29973;43.742;1.236;2023-06-26T07:49:43;23.00;99.90
44277;DHT22;29973;43.742;1.236;2023-06-26T07:52:09;22.80;99.90
44277;DHT22;29973;43.742;1.236;2023-06-26T07:54:36;23.20;99.90
44277;DHT22;29973;43.742;1.236;2023-06-26T07:57:04;23.40;99.90
44277;DHT22;29973;43.742;1.236;2023-06-26T07:59:33;23.10;99.90
44277;DHT22;29973;43.742;1.236;2023-06-26T08:01:59;23.00;99.90
44277;DHT22;29973;43.742;1.236;2023-06-26T08:04:26;22.40;99.90
44277;DHT22;29973;43.742;1.236;2023-06-26T08:06:54;22.10;99.90
44277;DHT22;29973;43.742;1.236;2023-06-26T08:09:21;21.30;99.90
44277;DHT22;29973;43.742;1.236;2023-06-26T08:11:48;21.40;99.90
44277;DHT22;29973;43.742;1.236;2023-06-26T08:14:14;21.60;99.90
44277;DHT22;29973;43.742;1.236;2023-06-26T08:16:40;21.70;99.90
44277;DHT22;29973;43.742;1.236;2023-06-26T08:19:07;21.80;99.90
44277;DHT22;29973;43.742;1.236;2023-06-26T08:21:35;21.80;99.90
44277;DHT22;29973;43.742;1.236;2023-06-26T08:24:01;21.40;99.90
44277;DHT22;29973;43.742;1.236;2023-06-26T08:26:27;21.50;99.90
44277;DHT22;29973;43.742;1.236;2023-06-26T08:28:53;21.80;99.90
44277;DHT22;29973;43.742;1.236;2023-06-26T08:31:19;21.90;99.90
44277;DHT22;29973;43.742;1.236;2023-06-26T08:33:46;22.50;99.90
44277;DHT22;29973;43.742;1.236;2023-06-26T08:36:12;22.90;99.90
44277;DHT22;29973;43.742;1.236;2023-06-26T08:38:38;23.00;99.90
44277;DHT22;29973;43.742;1.236;2023-06-26T08:41:08;23.20;99.90
44277;DHT22;29973;43.742;1.236;2023-06-26T08:43:35;23.60;99.90
44277;DHT22;29973;43.742;1.236;2023-06-26T08:46:02;23.80;99.90
44277;DHT22;29973;43.742;1.236;2023-06-26T08:48:30;23.80;99.90
44277;DHT22;29973;43.742;1.236;2023-06-26T08:50:57;23.50;99.90
44277;DHT22;29973;43.742;1.236;2023-06-26T08:53:29;22.90;99.90
44277;DHT22;29973;43.742;1.236;2023-06-26T08:55:59;22.90;99.90
44277;DHT22;29973;43.742;1.236;2023-06-26T08:58:26;22.60;99.90
44277;DHT22;29973;43.742;1.236;2023-06-26T09:00:52;22.10;99.90
44277;DHT22;29973;43.742;1.236;2023-06-26T09:03:18;22.40;99.90
44277;DHT22;29973;43.742;1.236;2023-06-26T09:05:44;22.50;99.90
44277;DHT22;29973;43.742;1.236;2023-06-26T09:08:09;22.30;99.90
44277;DHT22;29973;43.742;1.236;2023-06-26T09:10:36;22.30;99.90
44277;DHT22;29973;43.742;1.236;2023-06-26T09:13:02;22.30;99.90
44277;DHT22;29973;43.742;1.236;2023-06-26T09:15:37;22.20;99.90
44277;DHT22;29973;43.742;1.236;2023-06-26T09:18:05;22.20;99.90
44277;DHT22;29973;43.742;1.236;2023-06-26T09:20:32;21.90;99.90
44277;DHT22;29973;43.742;1.236;2023-06-26T09:23:01;22.00;99.90
44277;DHT22;29973;43.742;1.236;2023-06-26T09:25:28;22.10;99.90
44277;DHT22;29973;43.742;1.236;2023-06-26T09:27:55;22.40;99.90
44277;DHT22;29973;43.742;1.236;2023-06-26T09:30:21;22.40;99.90
44277;DHT22;29973;43.742;1.236;2023-06-26T09:32:47;22.00;99.90
44277;DHT22;29973;43.742;1.236;2023-06-26T09:35:15;22.80;99.90
44277;DHT22;29973;43.742;1.236;2023-06-26T09:37:40;23.50;99.90
44277;DHT22;29973;43.742;1.236;2023-06-26T09:40:07;23.80;99.90
44277;DHT22;29973;43.742;1.236;2023-06-26T09:42:33;24.00;99.90
44277;DHT22;29973;43.742;1.236;2023-06-26T09:44:59;23.30;99.90
44277;DHT22;29973;43.742;1.236;2023-06-26T09:47:25;23.30;99.90
44277;DHT22;29973;43.742;1.236;2023-06-26T09:49:51;23.90;99.90
44277;DHT22;29973;43.742;1.236;2023-06-26T09:52:18;23.40;99.90
44277;DHT22;29973;43.742;1.236;2023-06-26T09:54:45;23.70;99.90
44277;DHT22;29973;43.742;1.236;2023-06-26T09:57:12;22.90;99.90
44277;DHT22;29973;43.742;1.236;2023-06-26T09:59:42;22.80;99.90
44277;DHT22;29973;43.742;1.236;2023-06-26T10:02:09;22.80;99.90
44277;DHT22;29973;43.742;1.236;2023-06-26T10:04:37;23.10;99.90
44277;DHT22;29973;43.742;1.236;2023-06-26T10:07:06;23.00;99.90
44277;DHT22;29973;43.742;1.236;2023-06-26T10:09:33;22.70;99.90
44277;DHT22;29973;43.742;1.236;2023-06-26T10:12:06;23.70;99.90
44277;DHT22;29973;43.742;1.236;2023-06-26T10:14:35;24.20;99.90
44277;DHT22;29973;43.742;1.236;2023-06-26T10:17:04;24.00;99.90
44277;DHT22;29973;43.742;1.236;2023-06-26T10:19:33;24.50;99.90
44277;DHT22;29973;43.742;1.236;2023-06-26T10:22:02;24.50;99.90
44277;DHT22;29973;43.742;1.236;2023-06-26T10:24:32;23.90;99.90
44277;DHT22;29973;43.742;1.236;2023-06-26T10:27:17;24.40;99.90
44277;DHT22;29973;43.742;1.236;2023-06-26T10:29:45;24.40;99.90
44277;DHT22;29973;43.742;1.236;2023-06-26T10:32:13;23.70;99.90
44277;DHT22;29973;43.742;1.236;2023-06-26T10:34:39;24.20;99.90
44277;DHT22;29973;43.742;1.236;2023-06-26T10:37:05;24.90;99.90
44277;DHT22;29973;43.742;1.236;2023-06-26T10:39:51;24.70;99.90
44277;DHT22;29973;43.742;1.236;2023-06-26T10:42:28;25.40;99.90
44277;DHT22;29973;43.742;1.236;2023-06-26T10:44:54;24.40;99.90
44277;DHT22;29973;43.742;1.236;2023-06-26T10:47:34;24.60;99.90
44277;DHT22;29973;43.742;1.236;2023-06-26T10:50:32;24.70;99.90
44277;DHT22;29973;43.742;1.236;2023-06-26T10:56:04;25.60;99.90
44277;DHT22;29973;43.742;1.236;2023-06-26T11:03:39;25.10;99.90
44277;DHT22;29973;43.742;1.236;2023-06-26T11:06:13;25.50;99.90
44277;DHT22;29973;43.742;1.236;2023-06-26T11:08:55;24.70;99.90
44277;DHT22;29973;43.742;1.236;2023-06-26T11:14:22;25.10;99.90
44277;DHT22;29973;43.742;1.236;2023-06-26T11:16:48;26.40;99.90
44277;DHT22;29973;43.742;1.236;2023-06-26T11:19:16;26.10;99.90
44277;DHT22;29973;43.742;1.236;2023-06-26T11:21:42;27.50;99.90
44277;DHT22;29973;43.742;1.236;2023-06-26T11:24:11;27.30;99.90
44277;DHT22;29973;43.742;1.236;2023-06-26T11:26:44;26.70;99.90
44277;DHT22;29973;43.742;1.236;2023-06-26T11:29:11;26.50;99.90
44277;DHT22;29973;43.742;1.236;2023-06-26T11:31:39;25.20;99.90
44277;DHT22;29973;43.742;1.236;2023-06-26T11:34:10;26.90;99.90
44277;DHT22;29973;43.742;1.236;2023-06-26T11:36:38;27.00;99.90
44277;DHT22;29973;43.742;1.236;2023-06-26T11:39:07;26.00;99.90
44277;DHT22;29973;43.742;1.236;2023-06-26T11:41:34;26.20;99.90
44277;DHT22;29973;43.742;1.236;2023-06-26T11:44:03;27.10;99.90
44277;DHT22;29973;43.742;1.236;2023-06-26T11:46:30;25.90;99.90
44277;DHT22;29973;43.742;1.236;2023-06-26T11:48:56;26.70;99.90
44277;DHT22;29973;43.742;1.236;2023-06-26T11:51:22;27.20;99.90
44277;DHT22;29973;43.742;1.236;2023-06-26T11:53:48;26.90;99.90
44277;DHT22;29973;43.742;1.236;2023-06-26T11:56:17;27.10;99.90
44277;DHT22;29973;43.742;1.236;2023-06-26T11:58:56;25.40;99.90
44277;DHT22;29973;43.742;1.236;2023-06-26T12:01:23;26.30;99.90
44277;DHT22;29973;43.742;1.236;2023-06-26T12:03:50;26.90;99.90
44277;DHT22;29973;43.742;1.236;2023-06-26T12:06:16;25.80;99.90
44277;DHT22;29973;43.742;1.236;2023-06-26T12:08:42;25.90;99.90
44277;DHT22;29973;43.742;1.236;2023-06-26T12:11:08;26.10;99.90
44277;DHT22;29973;43.742;1.236;2023-06-26T12:13:34;26.40;99.90
44277;DHT22;29973;43.742;1.236;2023-06-26T12:16:00;26.90;99.90
44277;DHT22;29973;43.742;1.236;2023-06-26T12:18:34;26.80;99.90
44277;DHT22;29973;43.742;1.236;2023-06-26T12:21:00;26.10;99.90
44277;DHT22;29973;43.742;1.236;2023-06-26T12:23:38;26.80;99.90
44277;DHT22;29973;43.742;1.236;2023-06-26T12:26:20;26.50;99.90
44277;DHT22;29973;43.742;1.236;2023-06-26T12:28:47;26.30;99.90
44277;DHT22;29973;43.742;1.236;2023-06-26T12:31:21;26.90;99.90
44277;DHT22;29973;43.742;1.236;2023-06-26T12:33:53;27.10;99.90
44277;DHT22;29973;43.742;1.236;2023-06-26T12:36:21;27.10;99.90
44277;DHT22;29973;43.742;1.236;2023-06-26T12:39:04;26.80;99.90
44277;DHT22;29973;43.742;1.236;2023-06-26T12:41:34;27.20;99.90
44277;DHT22;29973;43.742;1.236;2023-06-26T12:44:05;28.20;99.90
44277;DHT22;29973;43.742;1.236;2023-06-26T12:46:58;29.10;99.90
44277;DHT22;29973;43.742;1.236;2023-06-26T12:49:43;28.20;99.90
44277;DHT22;29973;43.742;1.236;2023-06-26T12:52:15;27.80;99.90
44277;DHT22;29973;43.742;1.236;2023-06-26T12:54:42;28.50;99.90
44277;DHT22;29973;43.742;1.236;2023-06-26T12:57:09;28.20;99.90
44277;DHT22;29973;43.742;1.236;2023-06-26T12:59:42;28.40;99.90
44277;DHT22;29973;43.742;1.236;2023-06-26T13:02:09;28.40;99.90
44277;DHT22;29973;43.742;1.236;2023-06-26T13:04:37;28.50;99.90
44277;DHT22;29973;43.742;1.236;2023-06-26T13:07:08;26.60;99.90
44277;DHT22;29973;43.742;1.236;2023-06-26T13:09:34;27.10;99.90
44277;DHT22;29973;43.742;1.236;2023-06-26T13:12:01;28.50;99.90
44277;DHT22;29973;43.742;1.236;2023-06-26T13:14:31;27.40;99.90
44277;DHT22;29973;43.742;1.236;2023-06-26T13:16:56;27.30;99.90
44277;DHT22;29973;43.742;1.236;2023-06-26T13:19:22;27.30;99.90
44277;DHT22;29973;43.742;1.236;2023-06-26T13:21:48;28.10;99.90
44277;DHT22;29973;43.742;1.236;2023-06-26T13:24:14;28.60;99.90
44277;DHT22;29973;43.742;1.236;2023-06-26T13:26:39;29.20;99.90
44277;DHT22;29973;43.742;1.236;2023-06-26T13:29:05;29.60;99.90
44277;DHT22;29973;43.742;1.236;2023-06-26T13:31:31;29.20;99.90
44277;DHT22;29973;43.742;1.236;2023-06-26T13:33:58;30.20;99.90
44277;DHT22;29973;43.742;1.236;2023-06-26T13:36:24;30.10;99.90
44277;DHT22;29973;43.742;1.236;2023-06-26T13:38:50;29.00;99.90
44277;DHT22;29973;43.742;1.236;2023-06-26T13:41:24;28.80;99.90
44277;DHT22;29973;43.742;1.236;2023-06-26T13:43:50;29.10;99.90
44277;DHT22;29973;43.742;1.236;2023-06-26T13:46:16;29.00;99.90
44277;DHT22;29973;43.742;1.236;2023-06-26T13:48:44;28.60;99.90
44277;DHT22;29973;43.742;1.236;2023-06-26T13:51:09;27.60;99.90
44277;DHT22;29973;43.742;1.236;2023-06-26T13:53:35;27.90;99.90
44277;DHT22;29973;43.742;1.236;2023-06-26T13:56:01;28.10;99.90
44277;DHT22;29973;43.742;1.236;2023-06-26T13:58:27;28.00;99.90
44277;DHT22;29973;43.742;1.236;2023-06-26T14:00:53;28.10;99.90
44277;DHT22;29973;43.742;1.236;2023-06-26T14:03:19;28.80;99.90
44277;DHT22;29973;43.742;1.236;2023-06-26T14:05:45;28.80;99.90
44277;DHT22;29973;43.742;1.236;2023-06-26T14:08:11;28.50;99.90
44277;DHT22;29973;43.742;1.236;2023-06-26T14:10:37;28.00;99.90
44277;DHT22;29973;43.742;1.236;2023-06-26T14:13:03;28.50;99.90
44277;DHT22;29973;43.742;1.236;2023-06-26T14:15:29;27.50;99.90
44277;DHT22;29973;43.742;1.236;2023-06-26T14:17:55;28.00;99.90
44277;DHT22;29973;43.742;1.236;2023-06-26T14:20:21;28.60;99.90
44277;DHT22;29973;43.742;1.236;2023-06-26T14:22:48;29.00;99.90
44277;DHT22;29973;43.742;1.236;2023-06-26T14:25:14;28.70;99.90
44277;DHT22;29973;43.742;1.236;2023-06-26T14:27:40;29.00;99.90
44277;DHT22;29973;43.742;1.236;2023-06-26T14:30:07;28.90;99.90
44277;DHT22;29973;43.742;1.236;2023-06-26T14:32:33;28.80;99.90
44277;DHT22;29973;43.742;1.236;2023-06-26T14:34:59;29.00;99.90
44277;DHT22;29973;43.742;1.236;2023-06-26T14:37:25;29.20;99.90
44277;DHT22;29973;43.742;1.236;2023-06-26T14:39:51;28.90;99.90
44277;DHT22;29973;43.742;1.236;2023-06-26T14:42:17;28.80;99.90
44277;DHT22;29973;43.742;1.236;2023-06-26T14:44:43;28.40;99.90
44277;DHT22;29973;43.742;1.236;2023-06-26T14:47:08;28.00;99.90
44277;DHT22;29973;43.742;1.236;2023-06-26T14:49:34;28.40;99.90
44277;DHT22;29973;43.742;1.236;2023-06-26T14:52:00;27.70;99.90
44277;DHT22;29973;43.742;1.236;2023-06-26T14:54:25;28.10;99.90
44277;DHT22;29973;43.742;1.236;2023-06-26T14:56:51;28.20;99.90
44277;DHT22;29973;43.742;1.236;2023-06-26T14:59:17;27.80;99.90
44277;DHT22;29973;43.742;1.236;2023-06-26T15:01:43;27.60;99.90
44277;DHT22;29973;43.742;1.236;2023-06-26T15:04:08;27.80;99.90
44277;DHT22;29973;43.742;1.236;2023-06-26T15:06:35;29.10;99.90
44277;DHT22;29973;43.742;1.236;2023-06-26T15:09:01;28.70;99.90
44277;DHT22;29973;43.742;1.236;2023-06-26T15:11:28;28.40;99.90
44277;DHT22;29973;43.742;1.236;2023-06-26T15:13:55;27.80;99.90
44277;DHT22;29973;43.742;1.236;2023-06-26T15:16:21;28.20;99.90
44277;DHT22;29973;43.742;1.236;2023-06-26T15:18:47;28.10;99.90
44277;DHT22;29973;43.742;1.236;2023-06-26T15:21:14;28.00;99.90
44277;DHT22;29973;43.742;1.236;2023-06-26T15:23:40;28.90;99.90
44277;DHT22;29973;43.742;1.236;2023-06-26T15:26:06;31.90;99.90
44277;DHT22;29973;43.742;1.236;2023-06-26T15:28:31;31.10;99.90
44277;DHT22;29973;43.742;1.236;2023-06-26T15:30:58;29.50;99.90
44277;DHT22;29973;43.742;1.236;2023-06-26T15:33:24;28.80;99.90
44277;DHT22;29973;43.742;1.236;2023-06-26T15:35:49;27.80;99.90
44277;DHT22;29973;43.742;1.236;2023-06-26T15:38:15;27.60;99.90
44277;DHT22;29973;43.742;1.236;2023-06-26T15:40:41;27.50;99.90
44277;DHT22;29973;43.742;1.236;2023-06-26T15:43:06;27.80;99.90
44277;DHT22;29973;43.742;1.236;2023-06-26T15:45:32;28.70;99.90
44277;DHT22;29973;43.742;1.236;2023-06-26T15:47:58;28.50;99.90
44277;DHT22;29973;43.742;1.236;2023-06-26T15:50:24;28.50;99.90